Time;durP1;ratioP1;P1;durP2;ratioP2;P2;SDS_P1;SDS_P2;PMS_P1;PMS_P2;Temp;Humidity;BMP_temperature;BMP_pressure;BME280_temperature;BME280_humidity;BME280_pressure;Samples;Min_cycle;Max_cycle;Signal;HPM_P1;HPM_P2
2022/11/08 00:03:40;;;;;;;8.47;7.23;;;10.00;56.60;;;;;;20748;6728;276071;-86
2022/11/08 00:15:03;;;;;;;6.90;5.97;;;10.30;55.10;;;;;;20890;6745;117073;-87
2022/11/08 00:17:38;;;;;;;7.43;5.40;;;10.00;55.60;;;;;;20845;6741;122986;-87
2022/11/08 00:20:14;;;;;;;6.03;5.47;;;9.80;57.10;;;;;;20771;6756;118269;-86
2022/11/08 00:22:50;;;;;;;6.62;6.12;;;9.60;57.80;;;;;;20717;6725;280760;-86
2022/11/08 00:25:25;;;;;;;6.72;6.20;;;9.90;58.00;;;;;;20780;6717;304759;-86
2022/11/08 00:28:01;;;;;;;5.93;5.43;;;10.30;56.40;;;;;;21064;6725;117203;-87
2022/11/08 00:30:36;;;;;;;6.03;5.47;;;10.30;56.00;;;;;;20871;6718;118407;-87
2022/11/08 00:33:12;;;;;;;7.37;6.72;;;10.00;56.20;;;;;;20763;6724;310298;-87
2022/11/08 00:35:48;;;;;;;6.30;5.80;;;10.10;56.00;;;;;;20961;6724;116960;-86
2022/11/08 00:38:24;;;;;;;8.40;6.55;;;10.20;56.10;;;;;;20728;6724;426815;-87
2022/11/08 00:40:59;;;;;;;6.87;6.30;;;10.20;56.00;;;;;;20592;6733;304253;-87
2022/11/08 00:43:35;;;;;;;6.63;6.03;;;10.50;55.50;;;;;;21101;6703;116099;-87
2022/11/08 00:46:11;;;;;;;5.27;4.87;;;10.40;55.30;;;;;;21092;6703;123090;-87
2022/11/08 00:48:47;;;;;;;6.17;5.53;;;10.10;55.70;;;;;;20835;6731;116926;-87
2022/11/08 00:51:23;;;;;;;6.07;5.50;;;9.80;57.30;;;;;;20868;6724;118261;-92
2022/11/08 00:53:58;;;;;;;5.40;5.00;;;9.60;58.30;;;;;;21058;6724;116667;-87
2022/11/08 00:56:34;;;;;;;5.93;5.50;;;9.50;58.00;;;;;;21000;6717;121567;-95
2022/11/08 00:59:10;;;;;;;5.53;5.03;;;9.30;58.80;;;;;;21015;6743;115663;-87
2022/11/08 01:01:45;;;;;;;6.03;5.53;;;9.20;58.30;;;;;;20838;6740;116277;-87
2022/11/08 01:04:21;;;;;;;6.67;5.93;;;9.20;58.60;;;;;;20910;6757;119673;-87
2022/11/08 01:06:59;;;;;;;6.90;6.40;;;9.10;58.70;;;;;;20652;6759;306853;-87
2022/11/08 01:09:32;;;;;;;5.67;5.20;;;9.40;58.60;;;;;;20927;6735;116730;-89
2022/11/08 01:12:07;;;;;;;7.05;6.47;;;9.50;58.00;;;;;;20662;6748;337304;-89
2022/11/08 01:14:43;;;;;;;6.03;5.60;;;9.70;57.90;;;;;;20932;6744;117360;-87
2022/11/08 01:17:19;;;;;;;6.27;5.77;;;9.70;57.60;;;;;;20926;6744;116646;-87
2022/11/08 01:19:54;;;;;;;6.80;6.03;;;9.50;57.90;;;;;;20921;6729;122447;-88
2022/11/08 01:22:30;;;;;;;7.47;5.87;;;9.30;58.20;;;;;;20941;6734;118906;-87
2022/11/08 01:25:06;;;;;;;7.27;6.77;;;9.40;58.50;;;;;;20783;6719;309578;-87
2022/11/08 01:27:42;;;;;;;6.90;6.40;;;9.40;58.50;;;;;;20676;6749;280802;-87
2022/11/08 01:30:17;;;;;;;7.10;6.40;;;9.80;57.50;;;;;;20631;6740;302272;-87
2022/11/08 01:32:53;;;;;;;6.67;6.00;;;10.20;55.70;;;;;;20939;6734;117122;-87
2022/11/08 01:35:31;;;;;;;6.80;6.20;;;10.00;55.50;;;;;;20910;6749;117066;-87
2022/11/08 01:38:06;;;;;;;7.30;6.60;;;9.70;57.00;;;;;;20641;6741;306799;-88
2022/11/08 01:40:42;;;;;;;7.10;6.53;;;9.80;57.10;;;;;;20587;6741;282291;-87
2022/11/08 01:43:24;;;;;;;13.68;11.50;;;10.10;55.60;;;;;;20723;6739;334855;-88
2022/11/08 01:46:21;;;;;;;9.95;9.05;;;10.40;55.00;;;;;;20730;6739;342881;-91
2022/11/08 01:48:51;;;;;;;9.03;8.13;;;10.60;54.60;;;;;;20846;6790;117092;-87
2022/11/08 01:51:27;;;;;;;9.13;8.15;;;10.30;54.70;;;;;;20590;6719;278733;-87
2022/11/08 01:54:03;;;;;;;8.23;7.40;;;10.50;54.90;;;;;;20728;6719;307973;-87
2022/11/08 01:56:38;;;;;;;7.45;6.85;;;10.50;54.60;;;;;;20737;6732;306333;-87
2022/11/08 01:59:17;;;;;;;7.28;6.75;;;10.60;54.20;;;;;;20683;6749;280525;-87
2022/11/08 02:01:50;;;;;;;6.37;5.90;;;10.80;54.10;;;;;;21018;6734;116613;-96
2022/11/08 02:04:25;;;;;;;6.57;6.00;;;10.50;54.90;;;;;;20928;6734;117096;-87
2022/11/08 02:07:01;;;;;;;7.40;6.70;;;10.00;54.90;;;;;;20724;6734;304433;-87
2022/11/08 02:09:37;;;;;;;7.20;6.50;;;10.30;54.70;;;;;;20715;6734;276710;-87
2022/11/08 02:12:13;;;;;;;7.28;6.62;;;10.30;54.60;;;;;;20709;6733;335951;-87
2022/11/08 02:14:49;;;;;;;7.50;6.78;;;10.60;53.60;;;;;;20735;6733;309599;-87
2022/11/08 02:17:25;;;;;;;6.17;5.67;;;10.60;53.60;;;;;;20940;6760;120511;-87
2022/11/08 02:20:01;;;;;;;7.05;6.45;;;10.20;54.10;;;;;;20682;6734;308106;-87
2022/11/08 02:22:40;;;;;;;6.70;6.20;;;10.20;54.10;;;;;;20931;6734;116995;-87
2022/11/08 02:25:17;;;;;;;6.40;5.80;;;10.00;54.20;;;;;;20815;6764;117073;-87
2022/11/08 02:27:52;;;;;;;7.43;6.43;;;9.70;56.50;;;;;;20752;6730;278916;-87
2022/11/08 02:30:41;;;;;;;7.65;6.85;;;10.00;54.40;;;;;;20661;6730;314261;-87
2022/11/08 02:33:21;;;;;;;6.00;5.50;;;10.00;54.40;;;;;;20972;6726;117298;-87
2022/11/08 02:35:56;;;;;;;5.73;5.30;;;9.90;55.40;;;;;;20959;6726;116803;-86
2022/11/08 02:38:32;;;;;;;6.23;5.67;;;9.50;55.90;;;;;;20958;6711;118848;-86
2022/11/08 02:41:07;;;;;;;6.10;5.60;;;9.20;56.40;;;;;;20884;6711;117926;-86
2022/11/08 02:43:43;;;;;;;7.28;6.68;;;8.90;56.80;;;;;;20679;6711;310785;-86
2022/11/08 02:46:19;;;;;;;6.77;6.17;;;9.20;57.40;;;;;;20914;6711;118675;-86
2022/11/08 02:48:55;;;;;;;7.72;7.10;;;9.30;57.20;;;;;;20704;6711;311286;-86
2022/11/08 02:51:31;;;;;;;7.13;6.43;;;9.30;57.10;;;;;;20826;6711;116933;-87
2022/11/08 02:54:06;;;;;;;6.93;6.33;;;9.20;56.80;;;;;;20953;6711;118677;-86
2022/11/08 02:56:42;;;;;;;7.80;7.10;;;9.00;57.20;;;;;;20750;6726;334882;-87
2022/11/08 02:59:17;;;;;;;6.77;6.37;;;9.20;57.30;;;;;;20978;6711;115757;-86
2022/11/08 03:01:54;;;;;;;7.95;7.30;;;9.30;57.00;;;;;;20540;6782;308315;-86
2022/11/08 03:04:29;;;;;;;6.53;6.10;;;9.30;57.00;;;;;;20979;6711;121575;-86
2022/11/08 03:07:05;;;;;;;5.87;5.47;;;9.20;56.80;;;;;;21023;6711;116762;-86
2022/11/08 03:09:40;;;;;;;6.60;6.03;;;9.00;57.20;;;;;;20781;6711;297857;-86
2022/11/08 03:12:16;;;;;;;6.70;6.10;;;9.20;57.00;;;;;;20744;6726;305051;-85
2022/11/08 03:14:52;;;;;;;5.83;5.47;;;9.50;56.70;;;;;;20927;6726;119663;-86
2022/11/08 03:17:27;;;;;;;7.27;5.43;;;9.40;56.40;;;;;;20975;6726;116583;-86
2022/11/08 03:20:03;;;;;;;5.80;5.30;;;9.10;56.90;;;;;;20961;6711;116711;-86
2022/11/08 03:22:39;;;;;;;6.33;5.77;;;8.90;57.50;;;;;;20804;6711;276176;-86
2022/11/08 03:25:24;;;;;;;6.15;5.72;;;9.00;57.10;;;;;;20801;6710;307736;-89
2022/11/08 03:27:50;;;;;;;5.97;5.47;;;9.40;56.40;;;;;;21013;6710;116678;-86
2022/11/08 03:30:25;;;;;;;5.60;5.10;;;9.30;56.20;;;;;;20937;6710;116809;-86
2022/11/08 03:33:01;;;;;;;5.37;5.00;;;9.10;56.60;;;;;;20968;6725;117246;-86
2022/11/08 03:35:37;;;;;;;6.40;5.90;;;8.80;57.00;;;;;;20754;6725;306981;-86
2022/11/08 03:38:12;;;;;;;5.70;5.30;;;9.00;57.30;;;;;;20945;6711;118641;-86
2022/11/08 03:40:48;;;;;;;6.53;5.10;;;8.90;56.90;;;;;;20850;6725;117648;-86
2022/11/08 03:43:23;;;;;;;5.70;5.20;;;8.80;57.30;;;;;;20981;6720;116949;-86
2022/11/08 03:45:59;;;;;;;5.82;5.43;;;8.60;57.70;;;;;;20773;6720;308802;-86
2022/11/08 03:48:34;;;;;;;5.55;5.15;;;8.80;57.70;;;;;;20690;6752;312916;-86
2022/11/08 03:51:10;;;;;;;5.37;5.07;;;9.20;56.80;;;;;;20692;6711;276976;-86
2022/11/08 03:53:46;;;;;;;5.27;4.27;;;9.50;55.70;;;;;;20773;6711;295797;-86
2022/11/08 03:56:21;;;;;;;4.77;3.60;;;9.70;53.40;;;;;;21001;6711;120915;-86
2022/11/08 03:58:58;;;;;;;4.50;4.20;;;9.40;53.40;;;;;;20764;6711;305914;-86
2022/11/08 04:01:34;;;;;;;4.30;4.00;;;9.40;53.00;;;;;;20829;6711;116534;-86
2022/11/08 04:04:09;;;;;;;5.10;4.75;;;9.10;53.20;;;;;;20743;6711;334574;-86
2022/11/08 04:06:45;;;;;;;3.80;3.60;;;9.10;53.80;;;;;;20970;6726;117336;-86
2022/11/08 04:09:21;;;;;;;3.92;3.72;;;8.90;53.10;;;;;;20742;6728;338667;-86
2022/11/08 04:23:39;;;;;;;4.23;3.30;;;8.10;54.60;;;;;;21018;6711;119875;-88
2022/11/08 04:26:14;;;;;;;4.43;3.80;;;7.80;55.00;;;;;;20787;6711;305438;-87
2022/11/08 04:28:50;;;;;;;3.40;3.20;;;8.00;55.30;;;;;;21013;6711;117014;-86
2022/11/08 04:31:25;;;;;;;3.73;3.53;;;8.00;55.10;;;;;;20664;6752;306725;-86
2022/11/08 04:34:01;;;;;;;3.80;3.50;;;8.20;54.70;;;;;;20983;6726;116439;-85
2022/11/08 04:36:46;;;;;;;3.60;3.40;;;8.10;54.50;;;;;;20980;6710;116819;-88
2022/11/08 04:39:12;;;;;;;3.67;3.47;;;7.90;54.90;;;;;;20756;6725;333486;-86
2022/11/08 04:41:48;;;;;;;3.23;3.03;;;8.10;54.90;;;;;;20777;6725;117094;-86
2022/11/08 04:44:23;;;;;;;46.67;4.03;;;8.00;54.60;;;;;;20999;6711;120215;-86
2022/11/08 04:46:59;;;;;;;5.32;3.72;;;7.90;55.00;;;;;;20807;6711;275130;-86
2022/11/08 04:49:35;;;;;;;39.00;4.30;;;7.90;54.30;;;;;;21015;6711;116819;-85
2022/11/08 04:52:11;;;;;;;68.90;6.68;;;8.00;54.50;;;;;;20744;6725;341660;-85
2022/11/08 04:54:46;;;;;;;362.10;14.47;;;8.00;54.50;;;;;;20982;6711;117112;-88
2022/11/08 04:57:22;;;;;;;338.58;14.95;;;7.90;54.70;;;;;;20750;6719;275724;-87
2022/11/08 04:59:58;;;;;;;396.73;18.23;;;8.00;55.30;;;;;;20946;6724;117141;-86
2022/11/08 05:02:33;;;;;;;664.47;18.17;;;7.90;55.20;;;;;;20931;6719;117589;-87
2022/11/08 05:05:09;;;;;;;521.92;20.17;;;7.70;55.80;;;;;;20730;6719;277643;-86
2022/11/08 05:07:44;;;;;;;362.40;16.35;;;7.80;55.70;;;;;;20732;6719;291204;-86
2022/11/08 05:10:20;;;;;;;581.75;20.15;;;8.10;55.30;;;;;;20648;6719;278795;-84
2022/11/08 05:12:56;;;;;;;359.90;15.73;;;8.40;55.20;;;;;;20944;6734;118158;-85
2022/11/08 05:15:31;;;;;;;106.45;7.68;;;8.20;55.00;;;;;;20842;6719;308556;-85
2022/11/08 05:18:07;;;;;;;12.13;4.82;;;8.30;55.00;;;;;;20532;6736;277411;-84
2022/11/08 05:23:38;;;;;;;125.23;7.00;;;8.30;54.50;;;;;;20989;6722;117048;-84
2022/11/08 05:26:14;;;;;;;94.05;6.55;;;7.90;55.10;;;;;;20765;6722;338180;-84
2022/11/08 05:28:49;;;;;;;292.77;10.80;;;8.00;54.80;;;;;;20980;6722;116934;-85
2022/11/08 05:31:25;;;;;;;70.40;6.97;;;7.90;54.70;;;;;;20621;6722;340187;-86
2022/11/08 05:34:00;;;;;;;175.20;8.30;;;7.90;55.00;;;;;;20963;6734;117218;-84
2022/11/08 05:36:37;;;;;;;71.50;11.20;;;7.60;56.20;;;;;;20852;6749;116740;-90
2022/11/08 05:39:12;;;;;;;5.97;4.53;;;7.60;55.60;;;;;;20666;6760;309633;-83
2022/11/08 05:41:48;;;;;;;42.33;5.57;;;7.70;55.50;;;;;;20751;6749;117210;-84
2022/11/08 05:44:23;;;;;;;6.90;6.50;;;7.70;55.40;;;;;;20883;6737;118036;-85
2022/11/08 05:47:09;;;;;;;6.10;5.80;;;7.50;55.50;;;;;;20691;6733;305798;-87
2022/11/08 05:49:35;;;;;;;5.78;5.43;;;7.70;55.40;;;;;;20785;6715;307016;-85
2022/11/08 05:52:11;;;;;;;4.73;4.43;;;7.90;54.10;;;;;;20926;6725;117714;-86
2022/11/08 05:54:47;;;;;;;4.62;4.43;;;7.90;54.10;;;;;;20720;6739;294131;-89
2022/11/08 05:57:23;;;;;;;3.87;3.70;;;8.30;53.50;;;;;;20656;6744;310607;-91
2022/11/08 05:59:58;;;;;;;4.00;3.80;;;8.30;53.50;;;;;;20624;6744;283384;-85
2022/11/08 06:02:34;;;;;;;4.15;3.95;;;8.50;52.20;;;;;;20720;6729;305605;-91
2022/11/08 06:05:10;;;;;;;15.97;14.80;;;8.60;52.10;;;;;;20865;6744;116717;-89
2022/11/08 06:07:45;;;;;;;4.73;4.40;;;8.40;52.50;;;;;;20847;6729;117557;-87
2022/11/08 06:10:22;;;;;;;6.03;5.73;;;8.00;53.00;;;;;;20578;6744;288825;-89
2022/11/08 06:12:57;;;;;;;6.32;6.03;;;8.00;53.00;;;;;;20648;6744;305872;-86
2022/11/08 06:15:33;;;;;;;6.37;5.97;;;8.20;51.80;;;;;;20866;6744;116914;-89
2022/11/08 06:18:08;;;;;;;6.60;6.10;;;8.00;52.00;;;;;;20641;6744;298954;-86
2022/11/08 06:20:44;;;;;;;6.07;5.67;;;8.00;53.20;;;;;;20797;6744;117763;-85
2022/11/08 06:23:20;;;;;;;5.27;4.87;;;7.90;53.30;;;;;;20936;6729;116655;-86
2022/11/08 06:25:55;;;;;;;5.27;4.87;;;7.60;53.90;;;;;;20939;6729;115798;-93
2022/11/08 06:28:32;;;;;;;5.77;5.27;;;7.40;54.60;;;;;;20701;6729;311363;-85
2022/11/08 06:31:09;;;;;;;5.60;5.03;;;7.60;55.80;;;;;;20748;6746;117216;-91
2022/11/08 06:33:44;;;;;;;5.80;5.30;;;7.70;55.70;;;;;;20730;6729;305523;-88
2022/11/08 06:36:20;;;;;;;5.30;5.00;;;7.90;56.10;;;;;;20653;6744;335630;-88
2022/11/08 06:38:58;;;;;;;6.93;6.53;;;8.30;55.50;;;;;;20903;6744;116404;-85
2022/11/08 06:41:31;;;;;;;8.37;7.87;;;8.30;55.30;;;;;;20806;6729;120346;-89
2022/11/08 06:44:07;;;;;;;6.80;6.30;;;8.10;55.70;;;;;;20915;6729;116859;-89
2022/11/08 06:46:42;;;;;;;7.68;7.22;;;7.90;56.20;;;;;;20737;6729;305292;-87
2022/11/08 06:49:19;;;;;;;5.55;5.25;;;8.50;54.60;;;;;;20666;6744;336861;-86
2022/11/08 06:51:57;;;;;;;5.13;4.73;;;8.50;54.50;;;;;;20712;6800;118141;-89
2022/11/08 06:54:33;;;;;;;4.80;4.50;;;8.60;54.40;;;;;;20699;6744;335505;-87
2022/11/08 06:57:08;;;;;;;4.70;4.40;;;8.70;54.00;;;;;;20674;6744;306623;-90
2022/11/08 06:59:54;;;;;;;4.50;4.12;;;9.10;53.30;;;;;;20654;6744;308941;-85
2022/11/08 07:02:20;;;;;;;3.80;3.60;;;9.40;52.10;;;;;;20916;6743;117857;-85
2022/11/08 07:04:55;;;;;;;3.80;3.60;;;9.20;52.20;;;;;;20997;6729;119445;-87
2022/11/08 07:07:31;;;;;;;11.47;3.80;;;8.80;52.90;;;;;;20926;6744;115624;-87
2022/11/08 07:10:07;;;;;;;7.50;3.30;;;8.60;53.70;;;;;;20870;6735;117049;-85
2022/11/08 07:12:42;;;;;;;9.30;3.90;;;8.40;54.10;;;;;;20727;6744;277134;-85
2022/11/08 07:15:18;;;;;;;32.47;4.33;;;8.60;53.40;;;;;;20896;6744;116750;-92
2022/11/08 07:17:55;;;;;;;19.52;4.85;;;8.60;53.30;;;;;;20659;6761;281309;-88
2022/11/08 07:20:58;;;;;;;58.55;6.00;;;8.80;52.70;;;;;;20555;6761;337285;-86
2022/11/08 07:23:33;;;;;;;29.30;5.10;;;9.00;52.10;;;;;;20693;6729;280568;-87
2022/11/08 07:26:10;;;;;;;4.83;4.03;;;9.20;51.80;;;;;;20878;6729;117174;-87
2022/11/08 07:28:44;;;;;;;23.30;5.35;;;9.00;52.20;;;;;;20702;6729;339563;-87
2022/11/08 07:31:20;;;;;;;5.80;5.12;;;9.00;52.50;;;;;;20576;6729;308541;-87
2022/11/08 07:33:56;;;;;;;4.57;4.37;;;9.30;52.40;;;;;;20696;6729;305817;-87
2022/11/08 07:36:31;;;;;;;4.43;4.23;;;9.50;52.40;;;;;;20635;6744;277259;-86
2022/11/08 07:39:10;;;;;;;4.27;3.97;;;9.70;52.00;;;;;;20890;6744;120434;-87
2022/11/08 07:41:43;;;;;;;4.15;3.95;;;9.50;52.20;;;;;;20523;6744;310068;-85
2022/11/08 07:44:19;;;;;;;8.20;7.47;;;9.50;52.50;;;;;;20650;6746;335555;-85
2022/11/08 07:46:55;;;;;;;6.15;5.65;;;9.70;52.40;;;;;;20704;6738;280301;-85
2022/11/08 07:49:32;;;;;;;5.23;4.93;;;10.10;52.50;;;;;;20694;6738;306816;-85
2022/11/08 07:52:07;;;;;;;4.13;3.83;;;10.40;53.10;;;;;;20920;6729;118331;-89
2022/11/08 07:54:43;;;;;;;4.70;4.40;;;10.50;53.30;;;;;;20745;6729;309549;-86
2022/11/08 07:57:18;;;;;;;4.20;4.00;;;10.70;53.90;;;;;;20879;6744;116975;-84
2022/11/08 07:59:54;;;;;;;3.73;3.53;;;10.80;53.90;;;;;;20855;6744;116866;-86
2022/11/08 08:02:30;;;;;;;4.20;3.80;;;10.80;53.90;;;;;;20878;6744;116550;-82
2022/11/08 08:05:05;;;;;;;23.48;5.43;;;10.70;53.50;;;;;;20675;6744;336057;-83
2022/11/08 08:07:41;;;;;;;6.87;4.40;;;10.70;51.50;;;;;;20901;6744;117496;-84
2022/11/08 08:10:26;;;;;;;5.00;4.70;;;10.70;51.60;;;;;;20892;6743;117268;-95
2022/11/08 08:12:52;;;;;;;7.53;4.53;;;10.50;52.00;;;;;;20903;6743;117012;-83
2022/11/08 08:15:37;;;;;;;4.17;3.77;;;10.40;52.60;;;;;;20892;6744;119854;-84
2022/11/08 08:18:03;;;;;;;16.93;4.57;;;10.20;53.00;;;;;;20902;6744;118178;-85
2022/11/08 08:20:39;;;;;;;4.90;4.60;;;10.10;53.30;;;;;;20603;6744;312445;-83
2022/11/08 08:23:15;;;;;;;4.75;4.37;;;10.40;53.70;;;;;;20669;6744;279994;-83
2022/11/08 08:25:51;;;;;;;4.18;3.90;;;10.90;53.80;;;;;;20615;6758;309417;-83
2022/11/08 08:28:28;;;;;;;3.90;3.70;;;11.90;53.30;;;;;;20666;6744;278049;-85
2022/11/08 08:31:03;;;;;;;3.20;3.03;;;11.90;53.30;;;;;;20771;6747;118291;-84
2022/11/08 08:33:39;;;;;;;3.60;3.40;;;12.10;53.40;;;;;;20672;6744;306529;-85
2022/11/08 08:36:16;;;;;;;5.83;5.50;;;12.40;53.10;;;;;;20678;6744;276773;-84
2022/11/08 08:38:55;;;;;;;6.93;6.47;;;12.80;52.50;;;;;;20694;6746;281760;-86
2022/11/08 08:41:28;;;;;;;5.10;4.80;;;13.10;51.40;;;;;;20544;6746;294209;-83
2022/11/08 08:44:04;;;;;;;6.43;6.03;;;13.40;50.50;;;;;;20710;6744;309169;-84
2022/11/08 08:46:39;;;;;;;6.97;6.57;;;13.60;50.30;;;;;;20869;6800;117182;-85
2022/11/08 08:49:15;;;;;;;5.30;4.80;;;13.50;50.60;;;;;;20928;6747;116060;-84
2022/11/08 08:51:51;;;;;;;4.37;4.07;;;12.80;51.20;;;;;;20717;6798;117315;-86
2022/11/08 08:54:32;;;;;;;4.80;4.50;;;12.80;51.20;;;;;;20709;6742;304803;-83
2022/11/08 08:57:02;;;;;;;4.60;4.30;;;12.80;51.40;;;;;;20840;6762;117571;-83
2022/11/08 08:59:38;;;;;;;4.57;4.27;;;12.90;51.30;;;;;;20912;6746;117128;-86
2022/11/08 09:02:14;;;;;;;5.20;4.90;;;12.70;52.40;;;;;;20684;6757;275493;-86
2022/11/08 09:04:50;;;;;;;5.07;4.70;;;12.70;51.80;;;;;;20896;6744;123881;-85
2022/11/08 09:07:25;;;;;;;4.83;4.60;;;12.70;51.90;;;;;;20884;6747;116160;-83
2022/11/08 09:10:01;;;;;;;5.40;5.10;;;12.50;52.40;;;;;;20616;6747;341369;-84
2022/11/08 09:12:36;;;;;;;4.70;4.40;;;12.60;51.80;;;;;;20646;6746;310778;-83
2022/11/08 09:15:12;;;;;;;4.80;4.30;;;13.00;51.50;;;;;;20763;6729;307817;-84
2022/11/08 09:17:49;;;;;;;4.83;3.80;;;13.30;50.80;;;;;;20894;6792;116035;-84
2022/11/08 09:20:27;;;;;;;3.85;3.65;;;13.30;50.80;;;;;;20506;6765;317461;-83
2022/11/08 09:23:00;;;;;;;4.10;3.80;;;13.40;50.00;;;;;;20654;6743;311900;-83
2022/11/08 09:25:36;;;;;;;3.67;3.47;;;13.60;49.60;;;;;;20655;6743;276907;-83
2022/11/08 09:28:12;;;;;;;2.75;2.65;;;13.80;48.20;;;;;;20571;6744;299782;-85
2022/11/08 09:30:58;;;;;;;3.23;2.80;;;13.90;48.50;;;;;;20788;6744;117807;-84
2022/11/08 09:33:26;;;;;;;3.08;2.87;;;13.70;48.90;;;;;;20713;6744;334562;-85
2022/11/08 09:36:02;;;;;;;2.90;2.70;;;13.80;49.30;;;;;;20722;6746;287526;-83
2022/11/08 09:38:37;;;;;;;2.95;2.75;;;14.10;49.00;;;;;;20701;6746;310965;-84
2022/11/08 09:41:39;;;;;;;2.30;2.20;;;14.40;48.90;;;;;;20572;6744;309463;-84
2022/11/08 09:44:35;;;;;;;2.83;2.63;;;14.80;48.50;;;;;;20698;6746;305690;-86
2022/11/08 09:47:30;;;;;;;2.50;2.40;;;15.20;48.00;;;;;;20883;6746;122082;-82
2022/11/08 09:50:30;;;;;;;2.67;2.50;;;15.30;48.40;;;;;;20595;6746;305252;-82
2022/11/08 09:53:36;;;;;;;2.47;2.27;;;15.50;47.30;;;;;;20875;6749;117097;-83
2022/11/08 09:56:02;;;;;;;3.10;2.90;;;15.40;47.70;;;;;;20879;6746;116015;-88
2022/11/08 09:58:50;;;;;;;2.13;2.03;;;15.20;48.10;;;;;;20871;6746;116048;-85
2022/11/08 10:01:26;;;;;;;2.90;2.70;;;15.00;48.60;;;;;;20526;6747;308752;-86
2022/11/08 10:04:01;;;;;;;3.80;3.60;;;15.20;48.30;;;;;;20941;6729;116263;-83
2022/11/08 10:06:57;;;;;;;4.20;3.33;;;15.30;48.60;;;;;;20915;6785;117817;-86
2022/11/08 10:09:52;;;;;;;3.40;3.10;;;15.10;49.10;;;;;;20984;6729;116015;-88
2022/11/08 10:12:40;;;;;;;3.93;3.63;;;15.00;49.70;;;;;;20871;6744;121937;-86
2022/11/08 10:15:10;;;;;;;4.53;4.30;;;14.90;50.10;;;;;;20657;6744;283503;-84
2022/11/08 10:18:06;;;;;;;3.75;3.45;;;15.20;49.70;;;;;;20662;6744;276875;-87
2022/11/08 10:20:41;;;;;;;3.50;3.20;;;15.60;49.10;;;;;;20790;6744;117988;-82
2022/11/08 10:23:30;;;;;;;3.10;2.90;;;15.70;49.20;;;;;;20669;6744;305198;-84
2022/11/08 10:26:08;;;;;;;3.50;3.30;;;15.80;48.20;;;;;;20637;6744;305240;-82
2022/11/08 10:28:48;;;;;;;3.45;3.10;;;16.10;47.90;;;;;;20671;6744;335525;-83
2022/11/08 10:31:19;;;;;;;3.10;2.90;;;16.40;47.50;;;;;;20543;6744;304001;-85
2022/11/08 10:33:55;;;;;;;2.90;2.70;;;16.60;47.00;;;;;;20680;6743;312011;-84
2022/11/08 10:36:30;;;;;;;2.40;2.30;;;16.80;46.20;;;;;;20846;6743;119204;-84
2022/11/08 10:39:07;;;;;;;2.37;2.22;;;16.60;46.90;;;;;;20694;6744;304820;-87
2022/11/08 10:41:55;;;;;;;2.67;2.47;;;16.70;46.40;;;;;;20733;6744;117279;-88
2022/11/08 10:44:30;;;;;;;3.30;3.10;;;16.50;46.80;;;;;;20653;6744;305466;-86
2022/11/08 10:47:13;;;;;;;2.90;2.80;;;16.60;47.90;;;;;;20885;6744;116392;-87
2022/11/08 10:49:48;;;;;;;3.97;2.83;;;16.50;48.20;;;;;;20912;6729;116321;-87
2022/11/08 10:52:23;;;;;;;4.13;3.10;;;16.20;48.70;;;;;;20899;6729;116504;-83
2022/11/08 10:55:00;;;;;;;2.47;2.30;;;16.00;49.20;;;;;;20913;6729;116620;-87
2022/11/08 10:57:43;;;;;;;3.60;3.40;;;15.90;49.60;;;;;;20714;6729;280457;-89
2022/11/08 11:00:18;;;;;;;3.07;2.87;;;16.00;49.10;;;;;;20606;6729;300218;-85
2022/11/08 11:03:00;;;;;;;3.37;3.10;;;16.40;48.20;;;;;;20865;6744;116900;-88
2022/11/08 11:05:35;;;;;;;3.47;3.10;;;16.30;48.40;;;;;;20640;6800;279758;-83
2022/11/08 11:08:11;;;;;;;4.77;4.47;;;16.40;48.20;;;;;;20844;6744;116906;-83
2022/11/08 11:10:47;;;;;;;3.00;2.90;;;16.40;48.50;;;;;;20784;6744;118953;-87
2022/11/08 11:13:25;;;;;;;3.80;3.50;;;16.10;48.90;;;;;;20870;6759;120873;-82
2022/11/08 11:16:04;;;;;;;3.20;2.90;;;16.00;49.40;;;;;;20887;6744;117099;-85
2022/11/08 11:18:46;;;;;;;3.60;3.30;;;15.90;49.60;;;;;;20796;6765;120924;-86
2022/11/08 11:21:21;;;;;;;3.33;3.03;;;15.90;50.00;;;;;;20701;6761;120173;-91
2022/11/08 11:23:58;;;;;;;3.30;3.00;;;15.80;50.10;;;;;;20715;6744;283749;-83
2022/11/08 11:26:55;;;;;;;3.73;3.53;;;16.10;50.00;;;;;;20644;6744;306089;-82
2022/11/08 11:29:34;;;;;;;4.07;3.87;;;16.50;48.90;;;;;;20863;6747;117063;-83
2022/11/08 11:32:19;;;;;;;4.33;4.00;;;16.50;49.70;;;;;;20833;6747;117354;-82
2022/11/08 11:34:56;;;;;;;4.03;3.70;;;16.40;49.40;;;;;;20957;6729;117005;-84
2022/11/08 11:37:38;;;;;;;3.20;2.90;;;16.30;49.80;;;;;;20936;6729;117846;-82
2022/11/08 11:40:34;;;;;;;3.07;2.73;;;16.10;50.40;;;;;;20828;6770;117252;-88
2022/11/08 11:43:26;;;;;;;3.20;2.93;;;16.10;50.40;;;;;;20975;6729;119897;-82
2022/11/08 11:46:20;;;;;;;3.58;3.35;;;16.50;49.70;;;;;;20757;6728;304770;-90
2022/11/08 11:49:03;;;;;;;3.33;3.13;;;16.40;49.60;;;;;;20758;6729;311302;-84
2022/11/08 11:51:36;;;;;;;3.33;2.97;;;17.00;49.40;;;;;;20807;6729;118004;-87
2022/11/08 11:54:14;;;;;;;3.87;3.13;;;16.90;48.70;;;;;;20676;6746;305412;-84
2022/11/08 11:56:50;;;;;;;5.20;4.60;;;17.10;48.00;;;;;;20651;6761;311263;-81
2022/11/08 12:00:06;;;;;;;3.43;3.23;;;17.50;47.60;;;;;;20646;6761;305720;-80
2022/11/08 12:03:05;;;;;;;3.30;3.00;;;17.50;47.60;;;;;;20861;6763;117419;-88
2022/11/08 12:06:09;;;;;;;3.50;3.30;;;17.10;48.70;;;;;;19747;7103;119381;-89
2022/11/08 12:09:06;;;;;;;5.00;4.60;;;17.10;48.70;;;;;;19744;7115;122647;-83
2022/11/08 12:11:42;;;;;;;3.77;3.40;;;16.90;48.90;;;;;;20080;6840;309112;-85
2022/11/08 12:14:20;;;;;;;3.08;2.78;;;17.20;47.10;;;;;;20679;6721;338135;-85
2022/11/08 12:17:16;;;;;;;3.73;3.43;;;17.60;46.20;;;;;;20741;6721;281720;-82
2022/11/08 12:20:33;;;;;;;3.53;3.10;;;17.90;46.00;;;;;;20935;6721;117179;-83
2022/11/08 12:23:37;;;;;;;2.77;2.57;;;17.80;46.20;;;;;;20706;6736;308054;-84
2022/11/08 12:26:18;;;;;;;3.80;3.50;;;17.90;44.00;;;;;;20735;6733;280223;-81
2022/11/08 12:29:30;;;;;;;3.33;3.13;;;18.20;43.60;;;;;;20915;6732;121697;-82
2022/11/08 12:32:39;;;;;;;3.03;2.72;;;18.00;44.30;;;;;;20667;6729;335248;-80
2022/11/08 12:35:32;;;;;;;2.77;2.50;;;18.10;44.60;;;;;;20865;6747;117279;-85
2022/11/08 12:38:17;;;;;;;2.63;2.43;;;18.00;44.90;;;;;;20638;6751;310016;-84
2022/11/08 12:41:10;;;;;;;4.05;2.80;;;18.00;44.20;;;;;;20530;6756;314926;-83
2022/11/08 12:43:45;;;;;;;3.00;2.70;;;18.20;44.00;;;;;;19717;7068;288507;-85
2022/11/08 12:46:20;;;;;;;2.83;2.60;;;18.50;43.60;;;;;;20373;6775;341777;-81
2022/11/08 12:49:16;;;;;;;2.87;2.67;;;18.60;43.20;;;;;;20999;6719;116860;-86
2022/11/08 12:52:01;;;;;;;2.97;2.67;;;18.40;43.70;;;;;;20991;6719;116953;-84
2022/11/08 12:54:38;;;;;;;3.03;2.83;;;17.90;45.10;;;;;;20951;6731;118098;-87
2022/11/08 12:57:17;;;;;;;2.43;2.33;;;17.80;45.10;;;;;;20847;6759;117540;-82
2022/11/08 13:00:12;;;;;;;3.17;2.97;;;17.70;45.40;;;;;;20872;6749;116138;-87
2022/11/08 13:03:03;;;;;;;3.33;2.65;;;17.60;45.80;;;;;;20740;6771;310490;-82
2022/11/08 13:05:38;;;;;;;2.93;2.70;;;18.20;44.60;;;;;;20731;6770;275261;-86
2022/11/08 13:08:17;;;;;;;3.05;2.75;;;18.20;44.60;;;;;;20745;6716;288735;-82
2022/11/08 13:11:02;;;;;;;2.90;2.70;;;18.50;43.90;;;;;;20569;6786;309393;-87
2022/11/08 13:13:54;;;;;;;5.30;4.90;;;18.80;43.20;;;;;;20579;6757;277528;-85
2022/11/08 13:16:33;;;;;;;2.87;2.63;;;18.90;42.30;;;;;;20877;6740;116402;-83
2022/11/08 13:19:29;;;;;;;4.43;2.93;;;18.70;43.10;;;;;;20869;6745;121117;-84
2022/11/08 13:22:06;;;;;;;3.30;2.33;;;18.40;44.00;;;;;;20790;6816;117438;-84
2022/11/08 13:24:52;;;;;;;;;;;;;;;;;;;;;
2022/11/08 13:27:37;;;;;;;2.47;2.37;;;18.10;44.10;;;;;;20684;6730;311256;-83
2022/11/08 13:30:18;;;;;;;2.90;2.50;;;18.50;43.50;;;;;;20331;6823;287766;-89
2022/11/08 13:33:11;;;;;;;2.40;2.30;;;18.80;42.70;;;;;;20934;6771;116966;-82
2022/11/08 13:36:26;;;;;;;2.57;2.33;;;18.70;43.30;;;;;;20860;6743;116961;-90
2022/11/08 13:39:21;;;;;;;2.40;2.20;;;18.40;43.90;;;;;;20806;6760;116571;-82
2022/11/08 13:42:04;;;;;;;13.80;10.63;;;18.10;44.40;;;;;;20687;6735;277149;-87
2022/11/08 13:44:52;;;;;;;3.40;3.10;;;18.30;43.90;;;;;;20907;6771;117902;-82
2022/11/08 13:47:32;;;;;;;2.42;2.33;;;18.30;44.10;;;;;;20457;6794;281009;-88
2022/11/08 13:50:32;;;;;;;3.27;2.93;;;18.50;42.40;;;;;;20614;6730;308985;-82
2022/11/08 13:53:20;;;;;;;2.50;2.30;;;18.70;44.70;;;;;;20737;6719;309144;-84
2022/11/08 13:56:05;;;;;;;2.50;2.35;;;18.90;42.10;;;;;;20726;6734;335687;-83
2022/11/08 13:58:40;;;;;;;2.60;2.40;;;19.00;42.00;;;;;;20986;6719;117002;-83
2022/11/08 14:01:26;;;;;;;3.07;2.40;;;18.80;42.90;;;;;;20640;6719;297861;-83
2022/11/08 14:04:01;;;;;;;2.50;2.30;;;18.80;45.00;;;;;;20773;6719;304976;-86
2022/11/08 14:06:40;;;;;;;2.90;2.60;;;18.90;45.10;;;;;;20733;6759;277256;-88